createdAt,value
2017-06-24T00:02:11.897Z,19.40
2017-06-24T00:04:39.549Z,19.30
2017-06-24T00:07:07.057Z,19.30
2017-06-24T00:09:35.313Z,19.20
2017-06-24T00:12:03.761Z,19.20
2017-06-24T00:14:31.272Z,19.10
2017-06-24T00:16:58.770Z,19.00
2017-06-24T00:19:27.234Z,18.90
2017-06-24T00:21:54.743Z,18.90
2017-06-24T00:24:22.214Z,18.80
2017-06-24T00:26:49.728Z,18.80
2017-06-24T00:29:17.974Z,18.70
2017-06-24T00:31:46.261Z,19.00
2017-06-24T00:34:13.760Z,19.00
2017-06-24T00:36:41.244Z,19.00
2017-06-24T00:39:08.757Z,18.90
2017-06-24T00:41:36.261Z,19.00
2017-06-24T00:44:03.743Z,19.00
2017-06-24T00:46:31.237Z,19.00
2017-06-24T00:48:58.745Z,19.10
2017-06-24T00:51:26.256Z,19.20
2017-06-24T00:53:53.739Z,19.20
2017-06-24T00:56:21.229Z,19.10
2017-06-24T00:58:48.729Z,18.90
2017-06-24T01:01:16.316Z,18.80
2017-06-24T01:03:43.799Z,18.70
2017-06-24T01:06:11.284Z,18.70
2017-06-24T01:08:38.786Z,18.60
2017-06-24T01:11:06.260Z,18.60
2017-06-24T01:13:33.764Z,18.60
2017-06-24T01:16:02.013Z,18.50
2017-06-24T01:18:29.495Z,18.50
2017-06-24T01:20:56.987Z,18.50
2017-06-24T01:23:24.470Z,18.40
2017-06-24T01:25:51.953Z,18.40
2017-06-24T01:28:19.444Z,18.20
2017-06-24T01:30:46.920Z,18.20
2017-06-24T01:33:14.420Z,18.20
2017-06-24T01:35:41.911Z,18.20
2017-06-24T01:38:10.168Z,18.10
2017-06-24T01:40:37.678Z,18.10
2017-06-24T01:43:05.182Z,18.00
2017-06-24T01:45:32.672Z,17.90
2017-06-24T01:48:00.156Z,17.90
2017-06-24T01:50:27.670Z,18.00
2017-06-24T01:52:55.916Z,18.00
2017-06-24T01:55:23.439Z,18.00
2017-06-24T01:57:50.940Z,18.00
2017-06-24T02:00:18.431Z,18.00
2017-06-24T02:02:46.734Z,18.00
2017-06-24T02:05:14.228Z,18.10
2017-06-24T02:07:41.714Z,18.10
2017-06-24T02:10:09.973Z,18.10
2017-06-24T02:12:37.448Z,18.00
2017-06-24T02:15:05.702Z,18.00
2017-06-24T02:17:33.230Z,18.00
2017-06-24T02:20:00.739Z,18.00
2017-06-24T02:22:28.232Z,18.00
2017-06-24T02:24:55.708Z,17.90
2017-06-24T02:27:23.193Z,17.80
2017-06-24T02:29:50.692Z,17.70
2017-06-24T02:32:18.200Z,17.80
2017-06-24T02:34:45.701Z,17.80
2017-06-24T02:37:13.966Z,17.70
2017-06-24T02:39:41.450Z,17.70
2017-06-24T02:42:08.956Z,17.80
2017-06-24T02:44:36.453Z,17.80
2017-06-24T02:47:04.707Z,17.70
2017-06-24T02:49:32.223Z,17.70
2017-06-24T02:51:59.719Z,17.70
2017-06-24T02:54:27.200Z,17.80
2017-06-24T02:56:55.464Z,17.80
2017-06-24T02:59:22.939Z,17.70
2017-06-24T03:01:51.228Z,17.70
2017-06-24T03:04:18.725Z,17.70
2017-06-24T03:06:46.226Z,17.70
2017-06-24T03:09:14.485Z,17.90
2017-06-24T03:11:41.988Z,17.80
2017-06-24T03:14:09.501Z,17.90
2017-06-24T03:16:36.977Z,17.90
2017-06-24T03:19:05.236Z,17.90
2017-06-24T03:21:32.734Z,17.90
2017-06-24T03:24:00.248Z,17.90
2017-06-24T03:26:27.737Z,18.00
2017-06-24T03:28:56.011Z,18.00
2017-06-24T03:31:24.264Z,18.20
2017-06-24T03:33:51.761Z,18.20
2017-06-24T03:36:19.263Z,18.10
2017-06-24T03:38:46.749Z,18.10
2017-06-24T03:41:14.259Z,18.10
2017-06-24T03:43:41.748Z,18.10
2017-06-24T03:46:09.225Z,18.00
2017-06-24T03:48:37.501Z,18.00
2017-06-24T03:51:05.749Z,18.10
2017-06-24T03:53:33.255Z,18.10
2017-06-24T03:56:01.498Z,18.10
2017-06-24T03:58:28.997Z,18.10
2017-06-24T04:00:56.493Z,18.20
2017-06-24T04:03:23.981Z,18.20
2017-06-24T04:05:51.476Z,18.10
2017-06-24T04:08:18.969Z,18.10
2017-06-24T04:10:46.480Z,18.00
2017-06-24T04:13:14.724Z,18.00
2017-06-24T04:15:42.204Z,18.00
2017-06-24T04:18:10.473Z,17.90
2017-06-24T04:20:38.739Z,17.90
2017-06-24T04:23:06.232Z,17.90
2017-06-24T04:25:33.713Z,17.90
2017-06-24T04:28:01.213Z,18.00
2017-06-24T04:30:28.701Z,18.00
2017-06-24T04:32:56.201Z,18.10
2017-06-24T04:35:23.693Z,18.20
2017-06-24T04:37:51.204Z,18.20
2017-06-24T04:40:18.691Z,18.10
2017-06-24T04:42:47.802Z,18.10
2017-06-24T04:45:15.275Z,18.10
2017-06-24T04:47:43.541Z,18.20
2017-06-24T04:50:11.025Z,18.10
2017-06-24T04:52:39.273Z,18.10
2017-06-24T04:55:06.785Z,18.10
2017-06-24T04:57:34.262Z,18.40
2017-06-24T05:00:02.560Z,18.50
2017-06-24T05:02:30.049Z,18.40
2017-06-24T05:04:57.540Z,18.60
2017-06-24T05:07:25.025Z,18.50
2017-06-24T05:09:53.281Z,18.50
2017-06-24T05:12:20.784Z,18.50
2017-06-24T05:14:48.290Z,18.60
2017-06-24T05:17:15.793Z,18.60
2017-06-24T05:19:43.296Z,18.80
2017-06-24T05:22:11.041Z,18.90
2017-06-24T05:24:38.587Z,19.10
2017-06-24T05:27:06.077Z,19.10
2017-06-24T05:29:33.597Z,19.20
2017-06-24T05:32:01.076Z,19.20
2017-06-24T05:34:28.580Z,19.20
2017-06-24T05:36:56.831Z,19.40
2017-06-24T05:39:24.337Z,19.40
2017-06-24T05:41:51.840Z,19.50
2017-06-24T05:44:19.316Z,19.60
2017-06-24T05:46:46.797Z,19.80
2017-06-24T05:49:15.074Z,20.10
2017-06-24T05:51:43.337Z,20.20
2017-06-24T05:54:10.832Z,20.20
2017-06-24T05:56:38.334Z,20.30
2017-06-24T05:59:05.837Z,20.60
2017-06-24T06:01:33.371Z,20.50
2017-06-24T06:04:00.889Z,20.50
2017-06-24T06:06:28.375Z,20.60
2017-06-24T06:08:55.881Z,20.70
2017-06-24T06:11:23.365Z,20.90
2017-06-24T06:13:50.841Z,20.90
2017-06-24T06:16:18.352Z,20.90
2017-06-24T06:18:45.838Z,20.80
2017-06-24T06:21:13.328Z,20.90
2017-06-24T06:23:40.821Z,20.80
2017-06-24T06:26:09.063Z,21.00
2017-06-24T06:28:36.555Z,20.90
2017-06-24T06:31:04.034Z,21.10
2017-06-24T06:33:31.518Z,21.40
2017-06-24T06:35:59.026Z,21.30
2017-06-24T06:38:27.269Z,21.40
2017-06-24T06:40:54.765Z,21.30
2017-06-24T06:43:23.004Z,21.90
2017-06-24T06:45:50.484Z,21.80
2017-06-24T06:48:18.764Z,21.90
2017-06-24T06:50:47.005Z,21.90
2017-06-24T06:53:14.489Z,21.80
2017-06-24T06:55:42.755Z,22.80
2017-06-24T06:58:11.021Z,23.00
2017-06-24T07:00:38.531Z,22.90
2017-06-24T07:03:06.008Z,23.00
2017-06-24T07:05:33.479Z,23.30
2017-06-24T07:08:00.975Z,23.90
2017-06-24T07:10:28.447Z,24.20
2017-06-24T07:12:56.728Z,25.50
2017-06-24T07:15:24.212Z,25.40
2017-06-24T07:17:51.701Z,25.70
2017-06-24T07:20:19.193Z,25.70
2017-06-24T07:22:47.509Z,25.90
2017-06-24T07:25:14.986Z,25.90
2017-06-24T07:27:42.469Z,26.70
2017-06-24T07:30:09.947Z,27.40
2017-06-24T07:32:38.229Z,27.80
2017-06-24T07:35:06.489Z,26.80
2017-06-24T07:37:33.960Z,26.70
2017-06-24T07:40:02.217Z,25.70
2017-06-24T07:42:29.681Z,25.70
2017-06-24T07:44:57.941Z,24.90
2017-06-24T07:47:25.446Z,24.90
2017-06-24T07:49:52.928Z,25.10
2017-06-24T07:52:20.432Z,26.00
2017-06-24T07:54:48.671Z,27.40
2017-06-24T07:57:16.161Z,27.30
2017-06-24T07:59:43.641Z,28.50
2017-06-24T08:02:11.876Z,28.00
2017-06-24T08:04:39.390Z,27.90
2017-06-24T08:07:06.855Z,28.90
2017-06-24T08:09:34.331Z,29.40
2017-06-24T08:12:01.810Z,29.60
2017-06-24T08:14:29.285Z,30.20
2017-06-24T08:16:56.774Z,28.90
2017-06-24T08:19:24.254Z,27.80
2017-06-24T08:21:51.747Z,27.90
2017-06-24T08:24:19.229Z,27.30
2017-06-24T08:26:47.473Z,26.40
2017-06-24T08:29:14.957Z,26.40
2017-06-24T08:31:43.216Z,29.40
2017-06-24T08:34:10.704Z,29.40
2017-06-24T08:36:38.952Z,30.80
2017-06-24T08:39:06.427Z,30.70
2017-06-24T08:41:34.681Z,30.70
2017-06-24T08:44:02.187Z,30.60
2017-06-24T08:46:29.656Z,31.20
2017-06-24T08:48:57.128Z,30.50
2017-06-24T08:51:24.629Z,29.80
2017-06-24T08:53:52.114Z,30.50
2017-06-24T08:56:19.585Z,30.20
2017-06-24T08:58:47.107Z,29.80
2017-06-24T09:01:15.349Z,31.00
2017-06-24T09:03:42.851Z,30.90
2017-06-24T09:06:11.117Z,30.80
2017-06-24T09:08:40.185Z,29.50
2017-06-24T09:11:07.657Z,29.40
2017-06-24T09:13:35.276Z,28.10
2017-06-24T09:16:02.737Z,27.80
2017-06-24T09:18:30.243Z,27.90
2017-06-24T09:20:57.725Z,29.30
2017-06-24T09:23:25.962Z,32.50
2017-06-24T09:25:53.465Z,32.40
2017-06-24T09:28:20.964Z,32.50
2017-06-24T09:30:48.497Z,30.90
2017-06-24T09:33:15.973Z,31.60
2017-06-24T09:35:43.518Z,33.10
2017-06-24T09:38:11.009Z,32.50
2017-06-24T09:40:38.538Z,33.50
2017-06-24T09:43:06.036Z,34.10
2017-06-24T09:45:33.554Z,34.30
2017-06-24T09:48:01.045Z,31.60
2017-06-24T09:50:28.526Z,33.00
2017-06-24T09:52:56.800Z,35.70
2017-06-24T09:55:24.279Z,35.50
2017-06-24T09:57:51.776Z,35.60
2017-06-24T10:00:19.430Z,34.90
2017-06-24T10:02:46.928Z,35.40
2017-06-24T10:05:14.429Z,35.70
2017-06-24T10:07:41.916Z,35.00
2017-06-24T10:10:09.459Z,34.50
2017-06-24T10:12:36.949Z,33.80
2017-06-24T10:15:04.426Z,33.80
2017-06-24T10:17:31.929Z,34.20
2017-06-24T10:19:59.426Z,33.40
2017-06-24T10:22:26.930Z,32.30
2017-06-24T10:24:54.439Z,32.80
2017-06-24T10:27:21.914Z,32.10
2017-06-24T10:29:49.412Z,30.50
2017-06-24T10:32:17.682Z,32.10
2017-06-24T10:34:46.454Z,32.00
2017-06-24T10:37:13.956Z,32.00
2017-06-24T10:39:41.442Z,31.10
2017-06-24T10:42:08.917Z,31.50
2017-06-24T10:44:36.404Z,32.20
2017-06-24T10:47:04.645Z,31.50
2017-06-24T10:49:32.177Z,31.50
2017-06-24T10:51:59.679Z,30.70
2017-06-24T10:54:27.153Z,31.00
2017-06-24T10:56:55.400Z,30.10
2017-06-24T10:59:22.913Z,30.00
2017-06-24T11:01:50.420Z,30.20
2017-06-24T11:04:17.896Z,29.60
2017-06-24T11:06:45.374Z,30.20
2017-06-24T11:09:13.639Z,31.20
2017-06-24T11:11:41.885Z,31.50
2017-06-24T11:14:09.368Z,31.60
2017-06-24T11:16:36.861Z,31.50
2017-06-24T11:19:04.334Z,30.00
2017-06-24T11:21:31.825Z,29.50
2017-06-24T11:23:59.346Z,29.80
2017-06-24T11:26:26.860Z,29.70
2017-06-24T11:28:55.109Z,29.30
2017-06-24T11:31:23.989Z,29.20
2017-06-24T11:33:52.652Z,28.20
2017-06-24T11:36:20.146Z,27.40
2017-06-24T11:38:48.376Z,27.40
2017-06-24T11:41:15.872Z,27.30
2017-06-24T11:43:44.142Z,26.90
2017-06-24T11:46:11.636Z,26.90
2017-06-24T11:48:39.107Z,27.70
2017-06-24T11:51:06.580Z,27.70
2017-06-24T11:53:34.096Z,27.10
2017-06-24T11:56:01.585Z,26.70
2017-06-24T11:58:29.081Z,27.00
2017-06-24T12:00:56.556Z,27.10
2017-06-24T12:03:24.834Z,27.50
2017-06-24T12:05:53.098Z,27.70
2017-06-24T12:08:20.605Z,27.70
2017-06-24T12:10:48.088Z,28.10
2017-06-24T12:13:15.568Z,27.70
2017-06-24T12:15:43.054Z,27.10
2017-06-24T12:18:11.324Z,27.30
2017-06-24T12:20:39.567Z,26.80
2017-06-24T12:23:07.053Z,26.80
2017-06-24T12:25:35.295Z,27.10
2017-06-24T12:28:02.785Z,27.10
2017-06-24T12:30:30.290Z,27.20
2017-06-24T12:32:57.767Z,27.40
2017-06-24T12:35:25.264Z,27.50
2017-06-24T12:37:52.752Z,27.10
2017-06-24T12:40:20.232Z,27.30
2017-06-24T12:42:47.732Z,27.40
2017-06-24T12:45:15.208Z,27.30
2017-06-24T12:47:43.466Z,26.60
2017-06-24T12:50:10.941Z,26.60
2017-06-24T12:52:39.208Z,27.20
2017-06-24T12:55:07.448Z,27.60
2017-06-24T12:57:34.944Z,27.50
2017-06-24T13:00:03.211Z,28.20
2017-06-24T13:02:30.698Z,28.20
2017-06-24T13:04:58.182Z,28.10
2017-06-24T13:07:25.676Z,27.90
2017-06-24T13:09:53.197Z,27.50
2017-06-24T13:12:20.686Z,27.30
2017-06-24T13:14:52.286Z,27.20
2017-06-24T13:17:20.424Z,27.40
2017-06-24T13:19:47.905Z,27.30
2017-06-24T13:22:16.172Z,27.40
2017-06-24T13:24:44.413Z,27.40
2017-06-24T13:27:11.904Z,27.40
2017-06-24T13:29:40.160Z,28.10
2017-06-24T13:32:08.525Z,28.10
2017-06-24T13:34:35.992Z,28.30
2017-06-24T13:37:03.482Z,28.20
2017-06-24T13:39:31.753Z,27.70
2017-06-24T13:41:59.251Z,27.70
2017-06-24T13:44:26.744Z,27.60
2017-06-24T13:46:54.243Z,27.70
2017-06-24T13:49:22.494Z,28.00
2017-06-24T13:51:49.975Z,28.00
2017-06-24T13:54:18.221Z,28.40
2017-06-24T13:56:45.708Z,28.40
2017-06-24T13:59:13.981Z,28.40
2017-06-24T14:01:42.265Z,28.50
2017-06-24T14:04:10.513Z,28.60
2017-06-24T14:06:38.009Z,28.60
2017-06-24T14:09:05.489Z,28.40
2017-06-24T14:11:32.993Z,27.90
2017-06-24T14:14:00.484Z,27.80
2017-06-24T14:16:27.961Z,27.80
2017-06-24T14:18:55.464Z,28.20
2017-06-24T14:21:22.934Z,28.50
2017-06-24T14:23:51.183Z,28.70
2017-06-24T14:26:18.683Z,28.60
2017-06-24T14:28:46.163Z,28.80
2017-06-24T14:31:13.668Z,28.10
2017-06-24T14:33:41.146Z,27.80
2017-06-24T14:36:09.418Z,27.70
2017-06-24T14:38:37.684Z,27.90
2017-06-24T14:41:05.188Z,27.90
2017-06-24T14:43:32.713Z,28.00
2017-06-24T14:46:00.965Z,28.00
2017-06-24T14:48:28.444Z,27.90
2017-06-24T14:50:56.716Z,27.40
2017-06-24T14:53:24.222Z,27.30
2017-06-24T14:55:51.689Z,27.30
2017-06-24T14:58:19.165Z,27.70
2017-06-24T15:00:46.752Z,28.00
2017-06-24T15:03:14.228Z,27.90
2017-06-24T15:05:42.488Z,27.60
2017-06-24T15:08:10.733Z,27.70
2017-06-24T15:10:38.225Z,27.70
2017-06-24T15:13:06.468Z,28.10
2017-06-24T15:15:34.354Z,28.10
2017-06-24T15:18:02.398Z,28.10
2017-06-24T15:20:30.333Z,27.90
2017-06-24T15:22:57.839Z,27.60
2017-06-24T15:25:25.350Z,27.60
2017-06-24T15:27:52.990Z,27.90
2017-06-24T15:30:21.239Z,28.40
2017-06-24T15:32:48.753Z,28.40
2017-06-24T15:35:16.228Z,28.60
2017-06-24T15:37:43.714Z,28.50
2017-06-24T15:40:11.217Z,28.30
2017-06-24T15:42:38.693Z,28.20
2017-06-24T15:45:06.209Z,28.40
2017-06-24T15:47:33.681Z,28.30
2017-06-24T15:50:01.199Z,28.20
2017-06-24T15:52:28.685Z,27.70
2017-06-24T15:54:56.193Z,27.50
2017-06-24T15:57:23.684Z,27.50
2017-06-24T15:59:51.153Z,27.60
2017-06-24T16:02:18.647Z,27.40
2017-06-24T16:04:46.132Z,27.50
2017-06-24T16:07:13.654Z,27.50
2017-06-24T16:09:41.895Z,26.60
2017-06-24T16:12:09.364Z,26.60
2017-06-24T16:14:36.880Z,26.50
2017-06-24T16:17:04.350Z,26.40
2017-06-24T16:19:31.836Z,26.40
2017-06-24T16:21:59.412Z,26.60
2017-06-24T16:24:27.668Z,26.70
2017-06-24T16:26:55.247Z,26.70
2017-06-24T16:29:23.476Z,26.30
2017-06-24T16:31:50.968Z,26.30
2017-06-24T16:34:18.440Z,26.30
2017-06-24T16:36:46.677Z,26.30
2017-06-24T16:39:14.211Z,26.30
2017-06-24T16:41:41.685Z,26.40
2017-06-24T16:44:09.233Z,26.50
2017-06-24T16:46:36.699Z,26.40
2017-06-24T16:49:04.206Z,26.30
2017-06-24T16:51:32.450Z,26.10
2017-06-24T16:53:59.957Z,26.00
2017-06-24T16:56:27.433Z,26.00
2017-06-24T16:58:54.938Z,26.00
2017-06-24T17:01:22.418Z,26.10
2017-06-24T17:03:50.676Z,26.20
2017-06-24T17:06:18.165Z,26.20
2017-06-24T17:08:45.640Z,26.30
2017-06-24T17:11:13.140Z,26.40
2017-06-24T17:13:40.605Z,26.40
2017-06-24T17:16:08.105Z,26.40
2017-06-24T17:18:35.587Z,26.40
2017-06-24T17:21:03.049Z,26.40
2017-06-24T17:23:30.544Z,26.30
2017-06-24T17:25:58.020Z,26.30
2017-06-24T17:28:26.294Z,26.20
2017-06-24T17:30:55.044Z,26.20
2017-06-24T17:33:22.548Z,26.20
2017-06-24T17:35:50.797Z,26.20
2017-06-24T17:38:18.297Z,26.20
2017-06-24T17:40:45.797Z,26.20
2017-06-24T17:43:13.267Z,26.20
2017-06-24T17:45:40.765Z,26.10
2017-06-24T17:48:08.999Z,25.80
2017-06-24T17:50:36.508Z,25.80
2017-06-24T17:53:04.000Z,25.70
2017-06-24T17:55:31.490Z,25.60
2017-06-24T17:57:58.989Z,25.60
2017-06-24T18:00:26.464Z,25.50
2017-06-24T18:02:53.965Z,25.40
2017-06-24T18:05:21.432Z,25.20
2017-06-24T18:07:49.712Z,25.10
2017-06-24T18:10:17.944Z,25.00
2017-06-24T18:12:45.421Z,25.00
2017-06-24T18:15:12.909Z,24.90
2017-06-24T18:17:41.152Z,24.90
2017-06-24T18:20:08.630Z,24.90
2017-06-24T18:22:36.143Z,24.80
2017-06-24T18:25:03.659Z,24.60
2017-06-24T18:27:31.932Z,24.50
2017-06-24T18:30:00.200Z,24.40
2017-06-24T18:32:27.688Z,24.40
2017-06-24T18:34:55.176Z,24.50
2017-06-24T18:37:22.669Z,24.40
2017-06-24T18:39:50.158Z,24.30
2017-06-24T18:42:17.651Z,24.30
2017-06-24T18:44:45.168Z,24.20
2017-06-24T18:47:13.417Z,24.10
2017-06-24T18:49:40.904Z,24.10
2017-06-24T18:52:08.388Z,24.00
2017-06-24T18:54:35.975Z,23.90
2017-06-24T18:57:03.469Z,23.80
2017-06-24T18:59:31.725Z,23.70
2017-06-24T19:01:59.225Z,23.70
2017-06-24T19:04:26.702Z,23.60
2017-06-24T19:06:54.214Z,23.60
2017-06-24T19:09:21.704Z,23.50
2017-06-24T19:11:49.227Z,23.40
2017-06-24T19:14:16.748Z,23.30
2017-06-24T19:16:44.237Z,23.00
2017-06-24T19:19:11.761Z,22.80
2017-06-24T19:21:39.244Z,22.90
2017-06-24T19:24:07.512Z,22.80
2017-06-24T19:26:35.039Z,22.80
2017-06-24T19:29:02.594Z,22.70
2017-06-24T19:31:30.096Z,22.70
2017-06-24T19:33:57.597Z,22.60
2017-06-24T19:36:25.106Z,22.50
2017-06-24T19:38:53.354Z,22.40
2017-06-24T19:41:20.859Z,22.40
2017-06-24T19:43:48.334Z,22.30
2017-06-24T19:46:15.838Z,22.20
2017-06-24T19:48:44.080Z,22.10
2017-06-24T19:51:11.555Z,22.00
2017-06-24T19:53:39.054Z,22.00
2017-06-24T19:56:06.547Z,21.90
2017-06-24T19:58:34.017Z,21.90
2017-06-24T20:01:01.521Z,21.80
2017-06-24T20:03:29.827Z,21.80
2017-06-24T20:05:57.305Z,21.80
2017-06-24T20:08:24.847Z,21.80
2017-06-24T20:10:52.337Z,21.80
2017-06-24T20:13:19.862Z,21.70
2017-06-24T20:15:47.352Z,21.70
2017-06-24T20:18:14.837Z,21.60
2017-06-24T20:20:42.345Z,21.60
2017-06-24T20:23:09.844Z,21.60
2017-06-24T20:25:38.126Z,21.40
2017-06-24T20:28:06.404Z,21.40
2017-06-24T20:30:33.904Z,21.40
2017-06-24T20:33:01.386Z,21.40
2017-06-24T20:35:28.872Z,21.30
2017-06-24T20:37:57.121Z,21.10
2017-06-24T20:40:24.599Z,21.10
2017-06-24T20:42:52.115Z,21.00
2017-06-24T20:45:19.616Z,21.00
2017-06-24T20:47:47.136Z,20.90
2017-06-24T20:50:14.614Z,20.80
2017-06-24T20:52:42.110Z,20.80
2017-06-24T20:55:10.347Z,20.80
2017-06-24T20:57:37.854Z,20.80
2017-06-24T21:00:06.164Z,20.80
2017-06-24T21:02:33.674Z,20.70
2017-06-24T21:05:01.160Z,20.80
2017-06-24T21:07:28.652Z,20.80
2017-06-24T21:09:56.128Z,20.80
2017-06-24T21:12:23.600Z,20.60
2017-06-24T21:14:51.101Z,20.60
2017-06-24T21:17:19.346Z,20.40
2017-06-24T21:19:46.852Z,20.30
2017-06-24T21:22:15.122Z,20.20
2017-06-24T21:24:43.367Z,20.10
2017-06-24T21:27:10.874Z,20.10
2017-06-24T21:29:38.351Z,20.00
2017-06-24T21:32:05.846Z,19.80
2017-06-24T21:34:33.332Z,19.70
2017-06-24T21:37:01.572Z,19.60
2017-06-24T21:39:29.079Z,19.60
2017-06-24T21:41:56.560Z,19.50
2017-06-24T21:44:24.056Z,19.40
2017-06-24T21:46:51.528Z,19.40
2017-06-24T21:49:19.788Z,19.60
2017-06-24T21:51:47.274Z,19.50
2017-06-24T21:54:15.536Z,19.30
2017-06-24T21:56:43.788Z,19.00
2017-06-24T21:59:11.282Z,19.00
2017-06-24T22:01:39.534Z,18.70
2017-06-24T22:04:07.008Z,18.60
2017-06-24T22:06:35.276Z,18.50
2017-06-24T22:09:02.760Z,18.50
2017-06-24T22:11:31.013Z,18.50
2017-06-24T22:13:58.491Z,18.50
2017-06-24T22:16:26.756Z,18.50
2017-06-24T22:18:55.075Z,18.40
2017-06-24T22:21:22.555Z,18.40
2017-06-24T22:23:50.065Z,18.40
2017-06-24T22:26:17.557Z,18.40
2017-06-24T22:28:45.063Z,18.50
2017-06-24T22:31:13.313Z,18.40
2017-06-24T22:33:40.804Z,18.40
2017-06-24T22:36:09.038Z,18.40
2017-06-24T22:38:36.512Z,18.40
2017-06-24T22:41:04.015Z,18.40
2017-06-24T22:43:31.493Z,18.40
2017-06-24T22:45:58.991Z,18.40
2017-06-24T22:48:26.468Z,18.20
2017-06-24T22:50:54.730Z,18.10
2017-06-24T22:53:22.220Z,18.10
2017-06-24T22:55:49.741Z,18.10
2017-06-24T22:58:17.217Z,18.10
2017-06-24T23:00:45.463Z,18.00
2017-06-24T23:03:12.957Z,18.00
2017-06-24T23:05:41.200Z,18.00
2017-06-24T23:08:08.701Z,18.00
2017-06-24T23:10:36.192Z,17.90
2017-06-24T23:13:03.692Z,17.80
2017-06-24T23:15:31.174Z,17.80
2017-06-24T23:17:59.416Z,17.70
2017-06-24T23:20:26.913Z,17.70
2017-06-24T23:22:54.380Z,17.70
2017-06-24T23:25:21.882Z,17.70
2017-06-24T23:27:49.360Z,17.70
2017-06-24T23:30:16.856Z,17.60
2017-06-24T23:32:44.348Z,17.70
2017-06-24T23:35:11.844Z,17.70
2017-06-24T23:37:40.163Z,17.70
2017-06-24T23:40:07.653Z,17.70
2017-06-24T23:42:35.180Z,17.60
2017-06-24T23:45:02.685Z,17.50
2017-06-24T23:47:30.172Z,17.50
2017-06-24T23:49:57.672Z,17.40
2017-06-24T23:52:25.176Z,17.40
2017-06-24T23:54:53.432Z,17.40
2017-06-24T23:57:20.905Z,17.40
2017-06-24T23:59:49.168Z,17.40
